sensor_id;sensor_type;location;lat;lon;timestamp;P1;durP1;ratioP1;P2;durP2;ratioP2
3643;SDS011;1838;50.742;7.158;2023-02-28T00:00:06;6.80;;;3.17;;
3643;SDS011;1838;50.742;7.158;2023-02-28T00:02:41;6.38;;;3.13;;
3643;SDS011;1838;50.742;7.158;2023-02-28T00:05:08;5.50;;;3.10;;
3643;SDS011;1838;50.742;7.158;2023-02-28T00:07:36;7.40;;;3.25;;
3643;SDS011;1838;50.742;7.158;2023-02-28T00:10:02;7.88;;;4.60;;
3643;SDS011;1838;50.742;7.158;2023-02-28T00:12:29;9.40;;;3.40;;
3643;SDS011;1838;50.742;7.158;2023-02-28T00:14:54;5.90;;;3.20;;
3643;SDS011;1838;50.742;7.158;2023-02-28T00:17:20;5.03;;;2.70;;
3643;SDS011;1838;50.742;7.158;2023-02-28T00:19:46;6.70;;;2.90;;
3643;SDS011;1838;50.742;7.158;2023-02-28T00:22:13;6.22;;;3.15;;
3643;SDS011;1838;50.742;7.158;2023-02-28T00:24:39;5.82;;;3.30;;
3643;SDS011;1838;50.742;7.158;2023-02-28T00:27:05;4.47;;;3.20;;
3643;SDS011;1838;50.742;7.158;2023-02-28T00:29:30;7.83;;;3.53;;
3643;SDS011;1838;50.742;7.158;2023-02-28T00:32:00;9.43;;;3.67;;
3643;SDS011;1838;50.742;7.158;2023-02-28T00:34:26;3.88;;;2.45;;
3643;SDS011;1838;50.742;7.158;2023-02-28T00:36:51;5.80;;;3.20;;
3643;SDS011;1838;50.742;7.158;2023-02-28T00:39:17;5.47;;;3.57;;
3643;SDS011;1838;50.742;7.158;2023-02-28T00:41:42;6.63;;;3.43;;
3643;SDS011;1838;50.742;7.158;2023-02-28T00:44:08;6.90;;;4.17;;
3643;SDS011;1838;50.742;7.158;2023-02-28T00:46:34;7.33;;;3.47;;
3643;SDS011;1838;50.742;7.158;2023-02-28T00:48:59;5.33;;;3.63;;
3643;SDS011;1838;50.742;7.158;2023-02-28T01:01:20;6.10;;;2.95;;
3643;SDS011;1838;50.742;7.158;2023-02-28T01:03:45;7.50;;;3.33;;
3643;SDS011;1838;50.742;7.158;2023-02-28T01:29:18;5.60;;;3.85;;
3643;SDS011;1838;50.742;7.158;2023-02-28T01:31:43;4.33;;;3.33;;
3643;SDS011;1838;50.742;7.158;2023-02-28T01:34:09;6.13;;;3.60;;
3643;SDS011;1838;50.742;7.158;2023-02-28T01:36:34;5.63;;;3.40;;
3643;SDS011;1838;50.742;7.158;2023-02-28T01:39:01;7.25;;;4.20;;
3643;SDS011;1838;50.742;7.158;2023-02-28T01:41:29;5.55;;;3.53;;
3643;SDS011;1838;50.742;7.158;2023-02-28T01:44:59;7.90;;;4.05;;
3643;SDS011;1838;50.742;7.158;2023-02-28T01:47:10;6.93;;;3.42;;
3643;SDS011;1838;50.742;7.158;2023-02-28T01:49:35;7.97;;;3.90;;
3643;SDS011;1838;50.742;7.158;2023-02-28T01:52:01;6.93;;;3.40;;
3643;SDS011;1838;50.742;7.158;2023-02-28T01:54:29;7.60;;;3.40;;
3643;SDS011;1838;50.742;7.158;2023-02-28T01:57:00;6.25;;;3.65;;
3643;SDS011;1838;50.742;7.158;2023-02-28T01:59:37;4.30;;;3.00;;
3643;SDS011;1838;50.742;7.158;2023-02-28T02:02:16;5.45;;;3.38;;
3643;SDS011;1838;50.742;7.158;2023-02-28T02:04:46;9.82;;;4.53;;
3643;SDS011;1838;50.742;7.158;2023-02-28T02:07:21;12.90;;;3.60;;
3643;SDS011;1838;50.742;7.158;2023-02-28T02:09:48;5.03;;;3.00;;
3643;SDS011;1838;50.742;7.158;2023-02-28T02:12:21;5.13;;;3.20;;
3643;SDS011;1838;50.742;7.158;2023-02-28T02:15:09;4.05;;;2.78;;
3643;SDS011;1838;50.742;7.158;2023-02-28T02:17:42;4.40;;;3.03;;
3643;SDS011;1838;50.742;7.158;2023-02-28T02:20:17;7.50;;;4.15;;
3643;SDS011;1838;50.742;7.158;2023-02-28T02:28:13;6.35;;;3.42;;
3643;SDS011;1838;50.742;7.158;2023-02-28T02:31:38;4.82;;;3.25;;
3643;SDS011;1838;50.742;7.158;2023-02-28T02:34:03;8.13;;;3.30;;
3643;SDS011;1838;50.742;7.158;2023-02-28T02:39:29;4.10;;;3.65;;
3643;SDS011;1838;50.742;7.158;2023-02-28T02:42:08;3.95;;;3.10;;
3643;SDS011;1838;50.742;7.158;2023-02-28T02:44:42;9.48;;;3.90;;
3643;SDS011;1838;50.742;7.158;2023-02-28T02:47:12;11.77;;;3.72;;
3643;SDS011;1838;50.742;7.158;2023-02-28T02:49:42;7.78;;;3.90;;
3643;SDS011;1838;50.742;7.158;2023-02-28T02:52:22;7.35;;;3.85;;
3643;SDS011;1838;50.742;7.158;2023-02-28T02:54:54;7.65;;;3.47;;
3643;SDS011;1838;50.742;7.158;2023-02-28T02:57:33;6.53;;;3.50;;
3643;SDS011;1838;50.742;7.158;2023-02-28T03:00:03;5.05;;;3.70;;
3643;SDS011;1838;50.742;7.158;2023-02-28T03:02:30;6.30;;;3.45;;
3643;SDS011;1838;50.742;7.158;2023-02-28T03:04:59;7.57;;;3.55;;
3643;SDS011;1838;50.742;7.158;2023-02-28T03:07:27;4.72;;;3.22;;
3643;SDS011;1838;50.742;7.158;2023-02-28T03:09:54;4.67;;;2.87;;
3643;SDS011;1838;50.742;7.158;2023-02-28T03:12:21;3.78;;;2.53;;
3643;SDS011;1838;50.742;7.158;2023-02-28T03:15:00;3.50;;;2.70;;
3643;SDS011;1838;50.742;7.158;2023-02-28T03:20:17;7.20;;;2.85;;
3643;SDS011;1838;50.742;7.158;2023-02-28T03:23:16;5.88;;;3.38;;
3643;SDS011;1838;50.742;7.158;2023-02-28T03:25:56;4.95;;;3.20;;
3643;SDS011;1838;50.742;7.158;2023-02-28T03:28:29;3.78;;;2.92;;
3643;SDS011;1838;50.742;7.158;2023-02-28T03:31:17;4.88;;;2.55;;
3643;SDS011;1838;50.742;7.158;2023-02-28T03:33:50;7.93;;;2.97;;
3643;SDS011;1838;50.742;7.158;2023-02-28T03:36:27;5.13;;;3.50;;
3643;SDS011;1838;50.742;7.158;2023-02-28T03:38:59;4.82;;;2.95;;
3643;SDS011;1838;50.742;7.158;2023-02-28T03:41:32;4.47;;;2.70;;
3643;SDS011;1838;50.742;7.158;2023-02-28T03:44:12;4.70;;;2.75;;
3643;SDS011;1838;50.742;7.158;2023-02-28T03:46:49;6.65;;;3.40;;
3643;SDS011;1838;50.742;7.158;2023-02-28T03:49:22;4.25;;;2.90;;
3643;SDS011;1838;50.742;7.158;2023-02-28T03:51:52;13.73;;;3.45;;
3643;SDS011;1838;50.742;7.158;2023-02-28T03:54:22;5.28;;;3.15;;
3643;SDS011;1838;50.742;7.158;2023-02-28T04:00:04;4.85;;;3.13;;
3643;SDS011;1838;50.742;7.158;2023-02-28T04:02:33;4.00;;;3.08;;
3643;SDS011;1838;50.742;7.158;2023-02-28T04:04:59;6.70;;;3.53;;
3643;SDS011;1838;50.742;7.158;2023-02-28T04:07:28;5.90;;;3.55;;
3643;SDS011;1838;50.742;7.158;2023-02-28T04:09:54;6.75;;;3.90;;
3643;SDS011;1838;50.742;7.158;2023-02-28T04:12:20;6.07;;;3.40;;
3643;SDS011;1838;50.742;7.158;2023-02-28T04:14:48;7.95;;;3.60;;
3643;SDS011;1838;50.742;7.158;2023-02-28T04:17:13;9.27;;;3.07;;
3643;SDS011;1838;50.742;7.158;2023-02-28T04:19:39;5.70;;;3.90;;
3643;SDS011;1838;50.742;7.158;2023-02-28T04:22:05;5.90;;;3.10;;
3643;SDS011;1838;50.742;7.158;2023-02-28T04:24:30;3.87;;;3.00;;
3643;SDS011;1838;50.742;7.158;2023-02-28T04:26:56;7.37;;;3.20;;
3643;SDS011;1838;50.742;7.158;2023-02-28T04:29:30;5.13;;;2.75;;
3643;SDS011;1838;50.742;7.158;2023-02-28T04:31:59;5.25;;;2.70;;
3643;SDS011;1838;50.742;7.158;2023-02-28T04:34:26;12.95;;;3.45;;
3643;SDS011;1838;50.742;7.158;2023-02-28T04:36:54;5.10;;;3.95;;
3643;SDS011;1838;50.742;7.158;2023-02-28T04:39:20;7.43;;;3.60;;
3643;SDS011;1838;50.742;7.158;2023-02-28T04:41:47;4.50;;;3.53;;
3643;SDS011;1838;50.742;7.158;2023-02-28T04:44:13;8.00;;;3.70;;
3643;SDS011;1838;50.742;7.158;2023-02-28T04:46:39;4.55;;;3.63;;
3643;SDS011;1838;50.742;7.158;2023-02-28T04:49:05;6.00;;;4.03;;
3643;SDS011;1838;50.742;7.158;2023-02-28T04:51:31;6.20;;;3.33;;
3643;SDS011;1838;50.742;7.158;2023-02-28T04:53:56;5.07;;;3.47;;
3643;SDS011;1838;50.742;7.158;2023-02-28T04:56:22;8.30;;;4.20;;
3643;SDS011;1838;50.742;7.158;2023-02-28T04:58:48;6.93;;;4.30;;
3643;SDS011;1838;50.742;7.158;2023-02-28T05:01:33;4.63;;;4.03;;
3643;SDS011;1838;50.742;7.158;2023-02-28T05:04:00;7.07;;;4.20;;
3643;SDS011;1838;50.742;7.158;2023-02-28T05:06:27;6.68;;;3.97;;
3643;SDS011;1838;50.742;7.158;2023-02-28T05:08:54;5.50;;;4.20;;
3643;SDS011;1838;50.742;7.158;2023-02-28T05:13:49;4.78;;;3.55;;
3643;SDS011;1838;50.742;7.158;2023-02-28T05:16:15;5.90;;;4.00;;
3643;SDS011;1838;50.742;7.158;2023-02-28T05:18:41;4.25;;;3.60;;
3643;SDS011;1838;50.742;7.158;2023-02-28T05:21:17;5.57;;;3.70;;
3643;SDS011;1838;50.742;7.158;2023-02-28T05:24:09;4.03;;;3.40;;
3643;SDS011;1838;50.742;7.158;2023-02-28T05:26:37;8.23;;;4.25;;
3643;SDS011;1838;50.742;7.158;2023-02-28T05:29:04;4.35;;;3.50;;
3643;SDS011;1838;50.742;7.158;2023-02-28T05:31:30;6.20;;;4.20;;
3643;SDS011;1838;50.742;7.158;2023-02-28T05:33:56;4.80;;;3.57;;
3643;SDS011;1838;50.742;7.158;2023-02-28T05:36:21;5.53;;;3.70;;
3643;SDS011;1838;50.742;7.158;2023-02-28T05:38:47;9.80;;;4.00;;
3643;SDS011;1838;50.742;7.158;2023-02-28T05:41:13;5.28;;;4.00;;
3643;SDS011;1838;50.742;7.158;2023-02-28T05:43:39;5.60;;;4.00;;
3643;SDS011;1838;50.742;7.158;2023-02-28T05:46:08;4.27;;;3.27;;
3643;SDS011;1838;50.742;7.158;2023-02-28T05:48:35;5.07;;;3.80;;
3643;SDS011;1838;50.742;7.158;2023-02-28T05:51:02;5.75;;;3.92;;
3643;SDS011;1838;50.742;7.158;2023-02-28T05:53:29;6.47;;;4.38;;
3643;SDS011;1838;50.742;7.158;2023-02-28T05:55:56;5.78;;;3.65;;
3643;SDS011;1838;50.742;7.158;2023-02-28T05:58:22;7.20;;;4.32;;
3643;SDS011;1838;50.742;7.158;2023-02-28T06:00:48;6.20;;;4.60;;
3643;SDS011;1838;50.742;7.158;2023-02-28T06:03:14;24.10;;;4.50;;
3643;SDS011;1838;50.742;7.158;2023-02-28T06:05:39;5.10;;;3.23;;
3643;SDS011;1838;50.742;7.158;2023-02-28T06:08:05;6.10;;;3.83;;
3643;SDS011;1838;50.742;7.158;2023-02-28T06:10:32;6.55;;;4.10;;
3643;SDS011;1838;50.742;7.158;2023-02-28T06:13:00;5.15;;;4.00;;
3643;SDS011;1838;50.742;7.158;2023-02-28T06:15:27;7.22;;;4.22;;
3643;SDS011;1838;50.742;7.158;2023-02-28T06:17:54;6.68;;;3.67;;
3643;SDS011;1838;50.742;7.158;2023-02-28T06:20:21;7.55;;;4.20;;
3643;SDS011;1838;50.742;7.158;2023-02-28T06:22:47;5.53;;;3.50;;
3643;SDS011;1838;50.742;7.158;2023-02-28T06:25:15;4.70;;;3.50;;
3643;SDS011;1838;50.742;7.158;2023-02-28T06:27:40;5.67;;;3.80;;
3643;SDS011;1838;50.742;7.158;2023-02-28T06:30:06;4.77;;;4.03;;
3643;SDS011;1838;50.742;7.158;2023-02-28T06:32:32;5.78;;;3.83;;
3643;SDS011;1838;50.742;7.158;2023-02-28T06:34:58;6.00;;;4.47;;
3643;SDS011;1838;50.742;7.158;2023-02-28T06:37:23;9.70;;;4.50;;
3643;SDS011;1838;50.742;7.158;2023-02-28T06:39:51;5.30;;;4.47;;
3643;SDS011;1838;50.742;7.158;2023-02-28T06:42:16;10.43;;;5.30;;
3643;SDS011;1838;50.742;7.158;2023-02-28T06:44:42;6.17;;;3.97;;
3643;SDS011;1838;50.742;7.158;2023-02-28T06:47:08;4.80;;;3.40;;
3643;SDS011;1838;50.742;7.158;2023-02-28T06:49:34;8.27;;;3.70;;
3643;SDS011;1838;50.742;7.158;2023-02-28T06:52:00;7.38;;;4.63;;
3643;SDS011;1838;50.742;7.158;2023-02-28T06:54:26;4.80;;;4.13;;
3643;SDS011;1838;50.742;7.158;2023-02-28T06:56:52;7.47;;;3.90;;
3643;SDS011;1838;50.742;7.158;2023-02-28T06:59:19;5.97;;;4.05;;
3643;SDS011;1838;50.742;7.158;2023-02-28T07:01:45;7.00;;;3.63;;
3643;SDS011;1838;50.742;7.158;2023-02-28T07:04:10;6.10;;;4.30;;
3643;SDS011;1838;50.742;7.158;2023-02-28T07:06:36;5.63;;;4.40;;
3643;SDS011;1838;50.742;7.158;2023-02-28T07:09:01;6.13;;;4.20;;
3643;SDS011;1838;50.742;7.158;2023-02-28T07:11:27;6.73;;;4.80;;
3643;SDS011;1838;50.742;7.158;2023-02-28T07:13:55;8.33;;;5.10;;
3643;SDS011;1838;50.742;7.158;2023-02-28T07:16:22;10.23;;;5.00;;
3643;SDS011;1838;50.742;7.158;2023-02-28T07:18:49;10.07;;;5.65;;
3643;SDS011;1838;50.742;7.158;2023-02-28T07:21:17;8.63;;;6.20;;
3643;SDS011;1838;50.742;7.158;2023-02-28T07:23:42;7.60;;;5.13;;
3643;SDS011;1838;50.742;7.158;2023-02-28T07:26:12;7.53;;;5.20;;
3643;SDS011;1838;50.742;7.158;2023-02-28T07:28:43;9.88;;;5.20;;
3643;SDS011;1838;50.742;7.158;2023-02-28T07:31:11;8.18;;;5.13;;
3643;SDS011;1838;50.742;7.158;2023-02-28T07:33:38;5.93;;;4.50;;
3643;SDS011;1838;50.742;7.158;2023-02-28T07:36:05;6.63;;;4.60;;
3643;SDS011;1838;50.742;7.158;2023-02-28T07:38:34;7.53;;;4.75;;
3643;SDS011;1838;50.742;7.158;2023-02-28T07:41:01;6.55;;;4.70;;
3643;SDS011;1838;50.742;7.158;2023-02-28T07:43:29;9.60;;;4.30;;
3643;SDS011;1838;50.742;7.158;2023-02-28T07:45:55;6.05;;;4.53;;
3643;SDS011;1838;50.742;7.158;2023-02-28T07:48:20;6.90;;;5.30;;
3643;SDS011;1838;50.742;7.158;2023-02-28T07:50:53;8.33;;;4.90;;
3643;SDS011;1838;50.742;7.158;2023-02-28T07:53:22;9.02;;;4.57;;
3643;SDS011;1838;50.742;7.158;2023-02-28T07:55:48;6.60;;;4.30;;
3643;SDS011;1838;50.742;7.158;2023-02-28T07:58:14;5.23;;;4.07;;
3643;SDS011;1838;50.742;7.158;2023-02-28T08:00:39;6.63;;;4.20;;
3643;SDS011;1838;50.742;7.158;2023-02-28T08:03:05;5.03;;;3.97;;
3643;SDS011;1838;50.742;7.158;2023-02-28T08:05:30;5.60;;;3.93;;
3643;SDS011;1838;50.742;7.158;2023-02-28T08:07:56;8.90;;;4.50;;
3643;SDS011;1838;50.742;7.158;2023-02-28T08:10:22;6.85;;;3.90;;
3643;SDS011;1838;50.742;7.158;2023-02-28T08:12:48;5.18;;;3.75;;
3643;SDS011;1838;50.742;7.158;2023-02-28T08:15:14;4.70;;;4.10;;
3643;SDS011;1838;50.742;7.158;2023-02-28T08:17:39;8.57;;;3.70;;
3643;SDS011;1838;50.742;7.158;2023-02-28T08:20:05;5.10;;;3.70;;
3643;SDS011;1838;50.742;7.158;2023-02-28T08:22:31;8.93;;;4.70;;
3643;SDS011;1838;50.742;7.158;2023-02-28T08:24:57;14.30;;;4.50;;
3643;SDS011;1838;50.742;7.158;2023-02-28T08:27:22;5.30;;;4.00;;
3643;SDS011;1838;50.742;7.158;2023-02-28T08:29:48;7.13;;;3.50;;
3643;SDS011;1838;50.742;7.158;2023-02-28T08:32:13;5.10;;;4.13;;
3643;SDS011;1838;50.742;7.158;2023-02-28T08:34:39;5.83;;;3.70;;
3643;SDS011;1838;50.742;7.158;2023-02-28T08:37:05;5.60;;;4.07;;
3643;SDS011;1838;50.742;7.158;2023-02-28T08:39:33;7.57;;;4.78;;
3643;SDS011;1838;50.742;7.158;2023-02-28T08:42:00;11.98;;;4.63;;
3643;SDS011;1838;50.742;7.158;2023-02-28T08:44:27;5.43;;;4.40;;
3643;SDS011;1838;50.742;7.158;2023-02-28T08:46:52;9.63;;;4.30;;
3643;SDS011;1838;50.742;7.158;2023-02-28T08:49:18;5.87;;;4.30;;
3643;SDS011;1838;50.742;7.158;2023-02-28T08:51:43;9.47;;;4.40;;
3643;SDS011;1838;50.742;7.158;2023-02-28T08:54:09;4.27;;;3.23;;
3643;SDS011;1838;50.742;7.158;2023-02-28T08:56:37;5.03;;;4.10;;
3643;SDS011;1838;50.742;7.158;2023-02-28T08:59:03;4.73;;;2.90;;
3643;SDS011;1838;50.742;7.158;2023-02-28T09:01:29;4.03;;;3.63;;
3643;SDS011;1838;50.742;7.158;2023-02-28T09:03:56;4.73;;;4.03;;
3643;SDS011;1838;50.742;7.158;2023-02-28T09:06:23;4.03;;;3.43;;
3643;SDS011;1838;50.742;7.158;2023-02-28T09:08:50;6.47;;;3.30;;
3643;SDS011;1838;50.742;7.158;2023-02-28T09:11:16;3.53;;;3.00;;
3643;SDS011;1838;50.742;7.158;2023-02-28T09:13:43;4.30;;;2.60;;
3643;SDS011;1838;50.742;7.158;2023-02-28T09:16:10;3.93;;;3.00;;
3643;SDS011;1838;50.742;7.158;2023-02-28T09:18:39;3.00;;;2.13;;
3643;SDS011;1838;50.742;7.158;2023-02-28T09:21:06;3.40;;;2.73;;
3643;SDS011;1838;50.742;7.158;2023-02-28T09:23:33;5.30;;;3.43;;
3643;SDS011;1838;50.742;7.158;2023-02-28T09:25:59;4.00;;;3.17;;
3643;SDS011;1838;50.742;7.158;2023-02-28T09:28:24;10.80;;;5.33;;
3643;SDS011;1838;50.742;7.158;2023-02-28T09:30:51;3.83;;;3.30;;
3643;SDS011;1838;50.742;7.158;2023-02-28T09:33:18;3.47;;;2.50;;
3643;SDS011;1838;50.742;7.158;2023-02-28T09:35:46;7.30;;;3.50;;
3643;SDS011;1838;50.742;7.158;2023-02-28T09:38:12;3.93;;;3.17;;
3643;SDS011;1838;50.742;7.158;2023-02-28T09:40:49;5.77;;;3.10;;
3643;SDS011;1838;50.742;7.158;2023-02-28T09:43:16;3.23;;;2.53;;
3643;SDS011;1838;50.742;7.158;2023-02-28T09:45:49;3.20;;;2.87;;
3643;SDS011;1838;50.742;7.158;2023-02-28T09:48:24;3.43;;;2.60;;
3643;SDS011;1838;50.742;7.158;2023-02-28T09:53:45;5.03;;;3.03;;
3643;SDS011;1838;50.742;7.158;2023-02-28T09:56:14;4.43;;;2.80;;
3643;SDS011;1838;50.742;7.158;2023-02-28T09:58:52;4.67;;;3.30;;
3643;SDS011;1838;50.742;7.158;2023-02-28T10:04:28;2.70;;;2.37;;
3643;SDS011;1838;50.742;7.158;2023-02-28T10:07:18;5.10;;;3.70;;
3643;SDS011;1838;50.742;7.158;2023-02-28T10:10:25;3.10;;;2.40;;
3643;SDS011;1838;50.742;7.158;2023-02-28T10:13:00;3.77;;;2.47;;
3643;SDS011;1838;50.742;7.158;2023-02-28T10:15:30;3.90;;;2.20;;
3643;SDS011;1838;50.742;7.158;2023-02-28T10:17:58;4.57;;;2.30;;
3643;SDS011;1838;50.742;7.158;2023-02-28T10:20:28;3.57;;;2.40;;
3643;SDS011;1838;50.742;7.158;2023-02-28T10:25:32;4.33;;;2.80;;
3643;SDS011;1838;50.742;7.158;2023-02-28T10:30:54;4.37;;;3.17;;
3643;SDS011;1838;50.742;7.158;2023-02-28T10:35:50;4.30;;;2.83;;
3643;SDS011;1838;50.742;7.158;2023-02-28T10:38:18;3.60;;;2.60;;
3643;SDS011;1838;50.742;7.158;2023-02-28T10:40:47;3.03;;;2.33;;
3643;SDS011;1838;50.742;7.158;2023-02-28T10:45:38;3.70;;;2.73;;
3643;SDS011;1838;50.742;7.158;2023-02-28T10:48:05;4.93;;;2.47;;
3643;SDS011;1838;50.742;7.158;2023-02-28T10:50:52;7.23;;;2.60;;
3643;SDS011;1838;50.742;7.158;2023-02-28T10:58:51;2.70;;;2.00;;
3643;SDS011;1838;50.742;7.158;2023-02-28T11:01:34;4.17;;;3.20;;
3643;SDS011;1838;50.742;7.158;2023-02-28T11:04:31;4.40;;;2.47;;
3643;SDS011;1838;50.742;7.158;2023-02-28T11:07:02;2.80;;;2.17;;
3643;SDS011;1838;50.742;7.158;2023-02-28T11:11:58;2.80;;;2.20;;
3643;SDS011;1838;50.742;7.158;2023-02-28T11:14:25;5.40;;;2.40;;
3643;SDS011;1838;50.742;7.158;2023-02-28T11:17:11;4.00;;;2.60;;
3643;SDS011;1838;50.742;7.158;2023-02-28T11:19:45;3.50;;;2.50;;
3643;SDS011;1838;50.742;7.158;2023-02-28T11:22:21;3.50;;;2.67;;
3643;SDS011;1838;50.742;7.158;2023-02-28T11:24:53;3.53;;;3.10;;
3643;SDS011;1838;50.742;7.158;2023-02-28T11:29:54;4.47;;;2.97;;
3643;SDS011;1838;50.742;7.158;2023-02-28T11:32:21;4.13;;;2.30;;
3643;SDS011;1838;50.742;7.158;2023-02-28T11:37:36;4.73;;;2.70;;
3643;SDS011;1838;50.742;7.158;2023-02-28T11:40:14;4.40;;;2.50;;
3643;SDS011;1838;50.742;7.158;2023-02-28T11:45:49;4.00;;;2.40;;
3643;SDS011;1838;50.742;7.158;2023-02-28T11:51:47;3.70;;;3.27;;
3643;SDS011;1838;50.742;7.158;2023-02-28T11:54:23;4.77;;;3.07;;
3643;SDS011;1838;50.742;7.158;2023-02-28T12:02:40;3.20;;;2.43;;
3643;SDS011;1838;50.742;7.158;2023-02-28T12:05:32;3.83;;;2.83;;
3643;SDS011;1838;50.742;7.158;2023-02-28T12:10:51;4.80;;;2.77;;
3643;SDS011;1838;50.742;7.158;2023-02-28T12:16:27;7.83;;;2.97;;
3643;SDS011;1838;50.742;7.158;2023-02-28T12:22:03;6.40;;;3.07;;
3643;SDS011;1838;50.742;7.158;2023-02-28T12:27:36;4.87;;;3.47;;
3643;SDS011;1838;50.742;7.158;2023-02-28T12:32:58;3.30;;;2.83;;
3643;SDS011;1838;50.742;7.158;2023-02-28T12:35:33;7.63;;;3.17;;
3643;SDS011;1838;50.742;7.158;2023-02-28T12:38:09;5.33;;;2.97;;
3643;SDS011;1838;50.742;7.158;2023-02-28T12:40:48;4.10;;;3.07;;
3643;SDS011;1838;50.742;7.158;2023-02-28T12:43:19;5.70;;;3.50;;
3643;SDS011;1838;50.742;7.158;2023-02-28T12:45:56;6.50;;;3.67;;
3643;SDS011;1838;50.742;7.158;2023-02-28T12:48:29;5.13;;;3.27;;
3643;SDS011;1838;50.742;7.158;2023-02-28T12:51:02;3.40;;;3.03;;
3643;SDS011;1838;50.742;7.158;2023-02-28T12:56:16;4.40;;;2.90;;
3643;SDS011;1838;50.742;7.158;2023-02-28T12:58:54;3.20;;;2.40;;
3643;SDS011;1838;50.742;7.158;2023-02-28T13:04:28;3.90;;;3.20;;
3643;SDS011;1838;50.742;7.158;2023-02-28T13:09:29;4.93;;;2.93;;
3643;SDS011;1838;50.742;7.158;2023-02-28T13:11:55;3.30;;;2.90;;
3643;SDS011;1838;50.742;7.158;2023-02-28T13:14:28;6.10;;;3.80;;
3643;SDS011;1838;50.742;7.158;2023-02-28T13:19:23;4.90;;;3.53;;
3643;SDS011;1838;50.742;7.158;2023-02-28T13:21:51;4.60;;;3.17;;
3643;SDS011;1838;50.742;7.158;2023-02-28T13:29:42;4.37;;;3.43;;
3643;SDS011;1838;50.742;7.158;2023-02-28T13:34:35;5.60;;;3.50;;
3643;SDS011;1838;50.742;7.158;2023-02-28T13:37:30;3.90;;;3.43;;
3643;SDS011;1838;50.742;7.158;2023-02-28T13:40:42;6.47;;;2.87;;
3643;SDS011;1838;50.742;7.158;2023-02-28T13:42:53;4.13;;;3.30;;
3643;SDS011;1838;50.742;7.158;2023-02-28T13:45:20;6.50;;;3.60;;
3643;SDS011;1838;50.742;7.158;2023-02-28T13:48:00;10.13;;;4.90;;
3643;SDS011;1838;50.742;7.158;2023-02-28T14:07:03;7.13;;;3.77;;
3643;SDS011;1838;50.742;7.158;2023-02-28T14:09:40;5.63;;;4.20;;
3643;SDS011;1838;50.742;7.158;2023-02-28T14:17:58;4.17;;;3.50;;
3643;SDS011;1838;50.742;7.158;2023-02-28T14:20:26;7.37;;;3.70;;
3643;SDS011;1838;50.742;7.158;2023-02-28T14:25:33;6.67;;;4.20;;
3643;SDS011;1838;50.742;7.158;2023-02-28T14:28:13;9.23;;;3.83;;
3643;SDS011;1838;50.742;7.158;2023-02-28T14:33:26;4.17;;;3.03;;
3643;SDS011;1838;50.742;7.158;2023-02-28T14:36:24;6.10;;;4.23;;
3643;SDS011;1838;50.742;7.158;2023-02-28T14:38:57;9.00;;;4.80;;
3643;SDS011;1838;50.742;7.158;2023-02-28T14:41:30;8.13;;;5.03;;
3643;SDS011;1838;50.742;7.158;2023-02-28T14:44:00;6.23;;;3.80;;
3643;SDS011;1838;50.742;7.158;2023-02-28T14:46:35;6.40;;;4.30;;
3643;SDS011;1838;50.742;7.158;2023-02-28T14:49:04;7.93;;;4.93;;
3643;SDS011;1838;50.742;7.158;2023-02-28T14:51:32;4.40;;;3.93;;
3643;SDS011;1838;50.742;7.158;2023-02-28T14:53:59;5.13;;;4.03;;
3643;SDS011;1838;50.742;7.158;2023-02-28T14:56:27;5.53;;;3.83;;
3643;SDS011;1838;50.742;7.158;2023-02-28T14:58:57;7.23;;;4.70;;
3643;SDS011;1838;50.742;7.158;2023-02-28T15:01:23;5.17;;;4.67;;
3643;SDS011;1838;50.742;7.158;2023-02-28T15:04:00;6.60;;;4.00;;
3643;SDS011;1838;50.742;7.158;2023-02-28T15:06:31;6.67;;;4.10;;
3643;SDS011;1838;50.742;7.158;2023-02-28T15:09:07;6.03;;;4.67;;
3643;SDS011;1838;50.742;7.158;2023-02-28T15:11:34;5.90;;;4.63;;
3643;SDS011;1838;50.742;7.158;2023-02-28T15:14:01;8.63;;;4.57;;
3643;SDS011;1838;50.742;7.158;2023-02-28T15:16:45;6.53;;;4.20;;
3643;SDS011;1838;50.742;7.158;2023-02-28T15:19:23;5.63;;;4.77;;
3643;SDS011;1838;50.742;7.158;2023-02-28T15:21:58;5.33;;;4.57;;
3643;SDS011;1838;50.742;7.158;2023-02-28T15:24:30;10.80;;;5.07;;
3643;SDS011;1838;50.742;7.158;2023-02-28T15:27:11;7.87;;;5.20;;
3643;SDS011;1838;50.742;7.158;2023-02-28T15:29:44;5.63;;;4.60;;
3643;SDS011;1838;50.742;7.158;2023-02-28T15:32:28;6.27;;;4.87;;
3643;SDS011;1838;50.742;7.158;2023-02-28T15:34:56;11.63;;;5.60;;
3643;SDS011;1838;50.742;7.158;2023-02-28T15:37:46;6.80;;;4.73;;
3643;SDS011;1838;50.742;7.158;2023-02-28T15:40:18;14.53;;;4.87;;
3643;SDS011;1838;50.742;7.158;2023-02-28T15:42:58;8.17;;;4.70;;
3643;SDS011;1838;50.742;7.158;2023-02-28T15:48:27;9.10;;;4.93;;
3643;SDS011;1838;50.742;7.158;2023-02-28T15:51:09;8.83;;;4.37;;
3643;SDS011;1838;50.742;7.158;2023-02-28T15:53:47;8.30;;;5.87;;
3643;SDS011;1838;50.742;7.158;2023-02-28T15:56:25;8.80;;;4.80;;
3643;SDS011;1838;50.742;7.158;2023-02-28T15:58:55;8.50;;;4.40;;
3643;SDS011;1838;50.742;7.158;2023-02-28T16:01:26;6.07;;;4.50;;
3643;SDS011;1838;50.742;7.158;2023-02-28T16:03:56;7.37;;;5.10;;
3643;SDS011;1838;50.742;7.158;2023-02-28T16:06:26;5.18;;;4.76;;
3643;SDS011;1838;50.742;7.158;2023-02-28T16:08:57;5.27;;;4.00;;
3643;SDS011;1838;50.742;7.158;2023-02-28T16:11:23;6.20;;;4.70;;
3643;SDS011;1838;50.742;7.158;2023-02-28T16:13:49;6.77;;;4.73;;
3643;SDS011;1838;50.742;7.158;2023-02-28T16:16:16;8.30;;;5.23;;
3643;SDS011;1838;50.742;7.158;2023-02-28T16:18:44;6.90;;;4.70;;
3643;SDS011;1838;50.742;7.158;2023-02-28T16:21:09;6.37;;;4.67;;
3643;SDS011;1838;50.742;7.158;2023-02-28T16:23:35;11.03;;;4.13;;
3643;SDS011;1838;50.742;7.158;2023-02-28T16:26:00;8.30;;;4.10;;
3643;SDS011;1838;50.742;7.158;2023-02-28T16:28:29;11.43;;;4.97;;
3643;SDS011;1838;50.742;7.158;2023-02-28T16:30:57;6.07;;;4.07;;
3643;SDS011;1838;50.742;7.158;2023-02-28T16:33:24;9.73;;;5.07;;
3643;SDS011;1838;50.742;7.158;2023-02-28T16:35:49;6.07;;;4.10;;
3643;SDS011;1838;50.742;7.158;2023-02-28T16:38:15;5.83;;;4.13;;
3643;SDS011;1838;50.742;7.158;2023-02-28T16:40:40;7.17;;;4.83;;
3643;SDS011;1838;50.742;7.158;2023-02-28T16:43:17;6.40;;;4.90;;
3643;SDS011;1838;50.742;7.158;2023-02-28T16:45:46;7.13;;;4.33;;
3643;SDS011;1838;50.742;7.158;2023-02-28T16:48:12;9.60;;;5.27;;
3643;SDS011;1838;50.742;7.158;2023-02-28T16:50:39;5.07;;;4.43;;
3643;SDS011;1838;50.742;7.158;2023-02-28T16:53:05;5.37;;;4.30;;
3643;SDS011;1838;50.742;7.158;2023-02-28T16:55:30;5.90;;;4.73;;
3643;SDS011;1838;50.742;7.158;2023-02-28T16:57:57;7.27;;;4.47;;
3643;SDS011;1838;50.742;7.158;2023-02-28T17:00:25;8.80;;;5.60;;
3643;SDS011;1838;50.742;7.158;2023-02-28T17:02:52;10.60;;;7.50;;
3643;SDS011;1838;50.742;7.158;2023-02-28T17:05:18;11.10;;;7.77;;
3643;SDS011;1838;50.742;7.158;2023-02-28T17:07:44;10.00;;;6.80;;
3643;SDS011;1838;50.742;7.158;2023-02-28T17:12:42;10.37;;;6.37;;
3643;SDS011;1838;50.742;7.158;2023-02-28T17:15:09;11.63;;;6.90;;
3643;SDS011;1838;50.742;7.158;2023-02-28T17:17:35;12.10;;;7.00;;
3643;SDS011;1838;50.742;7.158;2023-02-28T17:20:02;8.03;;;5.63;;
3643;SDS011;1838;50.742;7.158;2023-02-28T17:22:28;8.27;;;5.60;;
3643;SDS011;1838;50.742;7.158;2023-02-28T17:24:53;7.70;;;5.70;;
3643;SDS011;1838;50.742;7.158;2023-02-28T17:27:23;7.50;;;5.27;;
3643;SDS011;1838;50.742;7.158;2023-02-28T17:29:49;8.67;;;5.23;;
3643;SDS011;1838;50.742;7.158;2023-02-28T17:32:15;6.63;;;5.30;;
3643;SDS011;1838;50.742;7.158;2023-02-28T17:34:41;6.87;;;4.43;;
3643;SDS011;1838;50.742;7.158;2023-02-28T17:37:08;8.60;;;5.60;;
3643;SDS011;1838;50.742;7.158;2023-02-28T17:39:34;8.77;;;4.30;;
3643;SDS011;1838;50.742;7.158;2023-02-28T17:42:00;9.90;;;4.87;;
3643;SDS011;1838;50.742;7.158;2023-02-28T17:44:25;6.00;;;5.37;;
3643;SDS011;1838;50.742;7.158;2023-02-28T17:46:51;7.87;;;4.20;;
3643;SDS011;1838;50.742;7.158;2023-02-28T17:49:19;5.97;;;4.57;;
3643;SDS011;1838;50.742;7.158;2023-02-28T17:51:45;7.73;;;4.20;;
3643;SDS011;1838;50.742;7.158;2023-02-28T17:54:12;7.47;;;5.20;;
3643;SDS011;1838;50.742;7.158;2023-02-28T17:56:38;6.90;;;4.03;;
3643;SDS011;1838;50.742;7.158;2023-02-28T17:59:05;7.90;;;4.60;;
3643;SDS011;1838;50.742;7.158;2023-02-28T18:01:30;10.10;;;4.47;;
3643;SDS011;1838;50.742;7.158;2023-02-28T18:03:56;5.37;;;3.87;;
3643;SDS011;1838;50.742;7.158;2023-02-28T18:06:32;7.90;;;4.97;;
3643;SDS011;1838;50.742;7.158;2023-02-28T18:09:11;7.00;;;4.40;;